Federal Polaris — V7VQ3 — position and weather

sailwx.info

Track history (hours):
 
Tides and Currents Weather Stations Pressure Air Temp Water Temp Dewpoint Dewpoint Depression Visibility Wind Speed Wind Dir Waves Ship Positions

Federal Polaris

Last reported at 2017-Dec-27 18:59 UTC. Time now 2018-Feb-22 03:19 UTC.
Position N 34°07' E 139°16'.
Warning: this ship's position is 56 days out of date.

Length 182 m; draft 6.4 m.

Type: Ship. MMSI: 538004185.

Date/timePositionNaut miles runAvg speedWind from/ knotsBaromVisibWave heightAir tempDewpointWater temp
2017-Dec-27 18:59N 34°07' E 139°16'1510.3
2017-Dec-27 17:32N 34°16' E 139°30'210.8
2017-Dec-27 17:24N 34°17' E 139°32'611.5
2017-Dec-27 16:51N 34°21' E 139°38'1212.1
2017-Dec-27 15:49N 34°29' E 139°49'2312.4
2017-Dec-27 14:00N 34°43' E 140°11'812.6
2017-Dec-27 13:24N 34°48' E 140°18'613.6
2017-Dec-27 12:58N 34°52' E 140°23'27 0.6
2017-Dec-25 17:39N 34°34' E 139°58'514.9
2017-Dec-25 17:20N 34°31' E 139°54'514.6
2017-Dec-25 16:59N 34°28' E 139°49'714.5
2017-Dec-25 16:30N 34°24' E 139°42'714.6
2017-Dec-25 16:00N 34°19' E 139°35'33012.8
2017-Dec-24 14:07N 32°37' E 133°19'7812.6
2017-Dec-24 07:53N 33°16' E 131°59'410.6
2017-Dec-24 07:30N 33°20' E 131°58'612.3
2017-Dec-24 07:00N 33°26' E 132°02'2313.5
2017-Dec-24 05:19N 33°42' E 132°21'412.8
2017-Dec-24 05:00N 33°45' E 132°24'713.5
2017-Dec-24 04:29N 33°50' E 132°29'612.6
2017-Dec-24 03:59N 33°55' E 132°35'510.0
2017-Dec-24 03:30N 33°60' E 132°35'710.3
2017-Dec-24 02:48N 34°02' E 132°27'311.4
2017-Dec-24 02:30N 34°05' E 132°24'611.7
2017-Dec-24 02:00N 34°10' E 132°20'611.0
2017-Dec-24 01:30N 34°15' E 132°21'510.0
2017-Dec-24 01:00N 34°18' E 132°27'3 6.8
2017-Dec-24 00:30N 34°16' E 132°30'4 8.7
2017-Dec-24 00:00N 34°12' E 132°30'1 1.8
2017-Dec-23 23:27N 34°12' E 132°29'0 0.0
2017-Dec-23 00:58N 34°12' E 132°29'1 1.2
2017-Dec-23 00:30N 34°11' E 132°29'3 5.4
2017-Dec-23 00:01N 34°14' E 132°31'0 0.1
2017-Dec-22 23:30N 34°14' E 132°31'0 0.0
2017-Dec-22 22:59N 34°14' E 132°31'0 0.0
2017-Dec-22 22:29N 34°14' E 132°31'0 0.0
2017-Dec-22 21:59N 34°14' E 132°31'0 0.0
2017-Dec-22 21:29N 34°14' E 132°31'0 0.0
2017-Dec-22 20:59N 34°14' E 132°31'0 0.0
2017-Dec-22 20:29N 34°14' E 132°31'0 0.0
2017-Dec-22 19:35N 34°14' E 132°31'0 0.0
2017-Dec-22 19:29N 34°14' E 132°31'0 0.0
2017-Dec-22 18:59N 34°14' E 132°31'0 0.0
2017-Dec-22 18:29N 34°14' E 132°31'0 0.0
2017-Dec-22 17:59N 34°14' E 132°31'0 0.0
2017-Dec-22 17:29N 34°14' E 132°31'0 0.0
2017-Dec-22 16:59N 34°14' E 132°31'0 0.1
2017-Dec-22 16:17N 34°14' E 132°31'0 0.0
2017-Dec-22 15:59N 34°14' E 132°31'0 0.2
2017-Dec-22 15:29N 34°14' E 132°31'0 0.1
2017-Dec-22 14:59N 34°14' E 132°31'0 0.2
2017-Dec-22 14:29N 34°14' E 132°31'0 0.3
2017-Dec-22 13:59N 34°14' E 132°31'1 2.8
2017-Dec-22 13:30N 34°15' E 132°30'4 7.0
2017-Dec-22 13:00N 34°18' E 132°27'611.2
2017-Dec-22 12:30N 34°15' E 132°21'612.5
2017-Dec-22 12:00N 34°09' E 132°21'714.3
2017-Dec-22 11:29N 34°03' E 132°26'713.3
2017-Dec-22 10:57N 34°00' E 132°34'612.8
2017-Dec-22 10:30N 33°55' E 132°34'1413.8
2017-Dec-22 09:29N 33°44' E 132°23'2313.6
2017-Dec-22 07:46N 33°27' E 132°04'513.0
2017-Dec-22 07:23N 33°23' E 132°00'  
Track history (hours):
 
Tides and Currents Weather Stations Pressure Air Temp Water Temp Dewpoint Dewpoint Depression Visibility Wind Speed Wind Dir Waves Ship Positions

Federal Polaris

Last reported at 2017-Dec-27 18:59 UTC. Time now 2018-Feb-22 03:19 UTC.
Position N 34°07' E 139°16'.
Warning: this ship's position is 56 days out of date.

Length 182 m; draft 6.4 m.

Type: Ship. MMSI: 538004185.

Date/timePositionNaut miles runAvg speedWind from/ knotsBaromVisibWave heightAir tempDewpointWater temp
2017-Dec-27 18:59N 34°07' E 139°16'1510.3
2017-Dec-27 17:32N 34°16' E 139°30'210.8
2017-Dec-27 17:24N 34°17' E 139°32'611.5
2017-Dec-27 16:51N 34°21' E 139°38'1212.1
2017-Dec-27 15:49N 34°29' E 139°49'2312.4
2017-Dec-27 14:00N 34°43' E 140°11'812.6
2017-Dec-27 13:24N 34°48' E 140°18'613.6
2017-Dec-27 12:58N 34°52' E 140°23'27 0.6
2017-Dec-25 17:39N 34°34' E 139°58'514.9
2017-Dec-25 17:20N 34°31' E 139°54'514.6
2017-Dec-25 16:59N 34°28' E 139°49'714.5
2017-Dec-25 16:30N 34°24' E 139°42'714.6
2017-Dec-25 16:00N 34°19' E 139°35'33012.8
2017-Dec-24 14:07N 32°37' E 133°19'7812.6
2017-Dec-24 07:53N 33°16' E 131°59'410.6
2017-Dec-24 07:30N 33°20' E 131°58'612.3
2017-Dec-24 07:00N 33°26' E 132°02'2313.5
2017-Dec-24 05:19N 33°42' E 132°21'412.8
2017-Dec-24 05:00N 33°45' E 132°24'713.5
2017-Dec-24 04:29N 33°50' E 132°29'612.6
2017-Dec-24 03:59N 33°55' E 132°35'510.0
2017-Dec-24 03:30N 33°60' E 132°35'710.3
2017-Dec-24 02:48N 34°02' E 132°27'311.4
2017-Dec-24 02:30N 34°05' E 132°24'611.7
2017-Dec-24 02:00N 34°10' E 132°20'611.0
2017-Dec-24 01:30N 34°15' E 132°21'510.0
2017-Dec-24 01:00N 34°18' E 132°27'3 6.8
2017-Dec-24 00:30N 34°16' E 132°30'4 8.7
2017-Dec-24 00:00N 34°12' E 132°30'1 1.8
2017-Dec-23 23:27N 34°12' E 132°29'0 0.0
2017-Dec-23 00:58N 34°12' E 132°29'1 1.2
2017-Dec-23 00:30N 34°11' E 132°29'3 5.4
2017-Dec-23 00:01N 34°14' E 132°31'0 0.1
2017-Dec-22 23:30N 34°14' E 132°31'0 0.0
2017-Dec-22 22:59N 34°14' E 132°31'0 0.0
2017-Dec-22 22:29N 34°14' E 132°31'0 0.0
2017-Dec-22 21:59N 34°14' E 132°31'0 0.0
2017-Dec-22 21:29N 34°14' E 132°31'0 0.0
2017-Dec-22 20:59N 34°14' E 132°31'0 0.0
2017-Dec-22 20:29N 34°14' E 132°31'0 0.0
2017-Dec-22 19:35N 34°14' E 132°31'0 0.0
2017-Dec-22 19:29N 34°14' E 132°31'0 0.0
2017-Dec-22 18:59N 34°14' E 132°31'0 0.0
2017-Dec-22 18:29N 34°14' E 132°31'0 0.0
2017-Dec-22 17:59N 34°14' E 132°31'0 0.0
2017-Dec-22 17:29N 34°14' E 132°31'0 0.0
2017-Dec-22 16:59N 34°14' E 132°31'0 0.1
2017-Dec-22 16:17N 34°14' E 132°31'0 0.0
2017-Dec-22 15:59N 34°14' E 132°31'0 0.2
2017-Dec-22 15:29N 34°14' E 132°31'0 0.1
2017-Dec-22 14:59N 34°14' E 132°31'0 0.2
2017-Dec-22 14:29N 34°14' E 132°31'0 0.3
2017-Dec-22 13:59N 34°14' E 132°31'1 2.8
2017-Dec-22 13:30N 34°15' E 132°30'4 7.0
2017-Dec-22 13:00N 34°18' E 132°27'611.2
2017-Dec-22 12:30N 34°15' E 132°21'612.5
2017-Dec-22 12:00N 34°09' E 132°21'714.3
2017-Dec-22 11:29N 34°03' E 132°26'713.3
2017-Dec-22 10:57N 34°00' E 132°34'612.8
2017-Dec-22 10:30N 33°55' E 132°34'1413.8
2017-Dec-22 09:29N 33°44' E 132°23'2313.6
2017-Dec-22 07:46N 33°27' E 132°04'513.0
2017-Dec-22 07:23N 33°23' E 132°00'  

Dump ship's entire track history